sensor_id;sensor_type;location;lat;lon;timestamp;pressure;altitude;pressure_sealevel;temperature;humidity
54236;BME280;40151;43.606;1.472;2023-03-11T00:02:17;98984.56;;;18.70;51.87
54236;BME280;40151;43.606;1.472;2023-03-11T00:04:43;98979.28;;;18.70;51.74
54236;BME280;40151;43.606;1.472;2023-03-11T00:07:10;98966.06;;;18.70;51.87
54236;BME280;40151;43.606;1.472;2023-03-11T00:09:35;98975.91;;;18.68;52.00
54236;BME280;40151;43.606;1.472;2023-03-11T00:12:02;98963.44;;;18.70;51.97
54236;BME280;40151;43.606;1.472;2023-03-11T00:14:27;98970.63;;;18.68;52.16
54236;BME280;40151;43.606;1.472;2023-03-11T00:16:53;98971.56;;;18.67;51.77
54236;BME280;40151;43.606;1.472;2023-03-11T00:19:18;98960.03;;;18.68;51.90
54236;BME280;40151;43.606;1.472;2023-03-11T00:21:44;98970.63;;;18.68;51.78
54236;BME280;40151;43.606;1.472;2023-03-11T00:24:09;98965.31;;;18.68;52.09
54236;BME280;40151;43.606;1.472;2023-03-11T00:26:35;98960.03;;;18.68;51.82
54236;BME280;40151;43.606;1.472;2023-03-11T00:29:00;98954.75;;;18.68;51.74
54236;BME280;40151;43.606;1.472;2023-03-11T00:31:26;98944.19;;;18.68;51.89
54236;BME280;40151;43.606;1.472;2023-03-11T00:33:52;98954.75;;;18.68;51.95
54236;BME280;40151;43.606;1.472;2023-03-11T00:36:31;98947.78;;;18.67;52.03
54236;BME280;40151;43.606;1.472;2023-03-11T00:38:58;98938.91;;;18.68;52.02
54236;BME280;40151;43.606;1.472;2023-03-11T00:41:24;98951.28;;;18.68;52.14
54236;BME280;40151;43.606;1.472;2023-03-11T00:43:50;98946.00;;;18.68;51.90
54236;BME280;40151;43.606;1.472;2023-03-11T00:46:15;98942.50;;;18.67;52.04
54236;BME280;40151;43.606;1.472;2023-03-11T00:48:41;98940.59;;;18.69;52.04
54236;BME280;40151;43.606;1.472;2023-03-11T00:51:08;98938.91;;;18.68;52.10
54236;BME280;40151;43.606;1.472;2023-03-11T00:53:35;98952.13;;;18.68;51.71
54236;BME280;40151;43.606;1.472;2023-03-11T00:56:14;98949.47;;;18.68;51.89
54236;BME280;40151;43.606;1.472;2023-03-11T00:58:42;98952.13;;;18.68;51.86
54236;BME280;40151;43.606;1.472;2023-03-11T01:01:10;98935.50;;;18.66;52.10
54236;BME280;40151;43.606;1.472;2023-03-11T01:03:36;98939.09;;;18.65;52.23
54236;BME280;40151;43.606;1.472;2023-03-11T01:06:02;98937.22;;;18.67;52.06
54236;BME280;40151;43.606;1.472;2023-03-11T01:08:28;98929.28;;;18.67;52.02
54236;BME280;40151;43.606;1.472;2023-03-11T01:10:56;98932.88;;;18.66;51.94
54236;BME280;40151;43.606;1.472;2023-03-11T01:13:22;98940.78;;;18.66;52.27
54236;BME280;40151;43.606;1.472;2023-03-11T01:15:48;98931.91;;;18.67;52.10
54236;BME280;40151;43.606;1.472;2023-03-11T01:18:13;98929.38;;;18.65;52.25
54236;BME280;40151;43.606;1.472;2023-03-11T01:20:40;98944.19;;;18.68;52.22
54236;BME280;40151;43.606;1.472;2023-03-11T01:23:07;98923.13;;;18.67;52.20
54236;BME280;40151;43.606;1.472;2023-03-11T01:25:32;98940.78;;;18.66;52.17
54236;BME280;40151;43.606;1.472;2023-03-11T01:27:58;98937.22;;;18.67;51.88
54236;BME280;40151;43.606;1.472;2023-03-11T01:30:25;98941.63;;;18.67;51.91
54236;BME280;40151;43.606;1.472;2023-03-11T01:32:52;98928.53;;;18.65;52.00
54236;BME280;40151;43.606;1.472;2023-03-11T01:35:20;98933.69;;;18.67;51.97
54236;BME280;40151;43.606;1.472;2023-03-11T01:37:46;98919.66;;;18.66;52.24
54236;BME280;40151;43.606;1.472;2023-03-11T01:40:33;98918.72;;;18.67;51.91
54236;BME280;40151;43.606;1.472;2023-03-11T01:43:00;98917.97;;;18.65;52.11
54236;BME280;40151;43.606;1.472;2023-03-11T01:46:04;98902.94;;;18.65;52.12
54236;BME280;40151;43.606;1.472;2023-03-11T01:48:27;98900.22;;;18.67;52.20
54236;BME280;40151;43.606;1.472;2023-03-11T01:50:53;98897.56;;;18.67;52.13
54236;BME280;40151;43.606;1.472;2023-03-11T01:53:20;98889.81;;;18.64;52.17
54236;BME280;40151;43.606;1.472;2023-03-11T01:55:48;98885.31;;;18.66;52.04
54236;BME280;40151;43.606;1.472;2023-03-11T01:58:17;98882.66;;;18.66;52.22
54236;BME280;40151;43.606;1.472;2023-03-11T02:00:44;98880.84;;;18.67;51.99
54236;BME280;40151;43.606;1.472;2023-03-11T02:03:18;98887.94;;;18.66;52.29
54236;BME280;40151;43.606;1.472;2023-03-11T02:05:46;98879.06;;;18.67;52.25
54236;BME280;40151;43.606;1.472;2023-03-11T02:08:13;98873.78;;;18.67;52.06
54236;BME280;40151;43.606;1.472;2023-03-11T02:10:39;98873.78;;;18.67;52.26
54236;BME280;40151;43.606;1.472;2023-03-11T02:13:06;98856.22;;;18.66;52.27
54236;BME280;40151;43.606;1.472;2023-03-11T02:15:32;98875.47;;;18.68;52.33
54236;BME280;40151;43.606;1.472;2023-03-11T02:17:58;98857.94;;;18.67;52.13
54236;BME280;40151;43.606;1.472;2023-03-11T02:20:46;98861.50;;;18.66;52.25
54236;BME280;40151;43.606;1.472;2023-03-11T02:23:17;98850.84;;;18.68;52.30
54236;BME280;40151;43.606;1.472;2023-03-11T02:25:54;98868.50;;;18.67;52.10
54236;BME280;40151;43.606;1.472;2023-03-11T02:28:22;98856.22;;;18.66;52.12
54236;BME280;40151;43.606;1.472;2023-03-11T02:30:49;98840.38;;;18.66;52.40
54236;BME280;40151;43.606;1.472;2023-03-11T02:33:15;98841.22;;;18.67;52.10
54236;BME280;40151;43.606;1.472;2023-03-11T02:35:42;98847.44;;;18.65;52.18
54236;BME280;40151;43.606;1.472;2023-03-11T02:38:07;98857.94;;;18.67;52.46
54236;BME280;40151;43.606;1.472;2023-03-11T02:40:40;98851.78;;;18.67;52.24
54236;BME280;40151;43.606;1.472;2023-03-11T02:43:10;98838.56;;;18.67;52.25
54236;BME280;40151;43.606;1.472;2023-03-11T02:45:38;98856.22;;;18.66;52.46
54236;BME280;40151;43.606;1.472;2023-03-11T02:48:06;98858.09;;;18.64;52.16
54236;BME280;40151;43.606;1.472;2023-03-11T02:50:33;98861.50;;;18.66;52.38
54236;BME280;40151;43.606;1.472;2023-03-11T02:53:02;98861.50;;;18.66;52.42
54236;BME280;40151;43.606;1.472;2023-03-11T02:55:28;98865.00;;;18.67;52.39
54236;BME280;40151;43.606;1.472;2023-03-11T02:57:53;98877.38;;;18.66;52.39
54236;BME280;40151;43.606;1.472;2023-03-11T03:00:19;98869.34;;;18.68;52.24
54236;BME280;40151;43.606;1.472;2023-03-11T03:02:45;98858.88;;;18.66;52.10
54236;BME280;40151;43.606;1.472;2023-03-11T03:05:11;98842.94;;;18.68;52.31
54236;BME280;40151;43.606;1.472;2023-03-11T03:07:37;98864.91;;;18.68;52.20
54236;BME280;40151;43.606;1.472;2023-03-11T03:10:05;98864.06;;;18.68;52.45
54236;BME280;40151;43.606;1.472;2023-03-11T03:12:31;98857.94;;;18.67;52.32
54236;BME280;40151;43.606;1.472;2023-03-11T03:14:56;98873.78;;;18.67;52.40
54236;BME280;40151;43.606;1.472;2023-03-11T03:17:23;98875.47;;;18.68;52.30
54236;BME280;40151;43.606;1.472;2023-03-11T03:19:48;98889.63;;;18.67;52.24
54236;BME280;40151;43.606;1.472;2023-03-11T03:22:14;98877.28;;;18.68;52.24
54236;BME280;40151;43.606;1.472;2023-03-11T03:24:39;98886.91;;;18.69;52.44
54236;BME280;40151;43.606;1.472;2023-03-11T03:27:05;98878.19;;;18.67;52.40
54236;BME280;40151;43.606;1.472;2023-03-11T03:29:30;98872.91;;;18.67;52.59
54236;BME280;40151;43.606;1.472;2023-03-11T03:31:56;98880.00;;;18.66;52.29
54236;BME280;40151;43.606;1.472;2023-03-11T03:34:21;98872.09;;;18.66;52.72
54236;BME280;40151;43.606;1.472;2023-03-11T03:36:46;98872.91;;;18.67;52.49
54236;BME280;40151;43.606;1.472;2023-03-11T03:39:12;98874.66;;;18.68;52.37
54236;BME280;40151;43.606;1.472;2023-03-11T03:41:37;98874.66;;;18.68;52.50
54236;BME280;40151;43.606;1.472;2023-03-11T03:44:03;98870.19;;;18.68;52.19
54236;BME280;40151;43.606;1.472;2023-03-11T03:46:28;98871.88;;;18.69;52.37
54236;BME280;40151;43.606;1.472;2023-03-11T03:48:54;98863.22;;;18.67;52.25
54236;BME280;40151;43.606;1.472;2023-03-11T03:51:19;98862.25;;;18.68;52.32
54236;BME280;40151;43.606;1.472;2023-03-11T03:53:45;98864.91;;;18.68;52.48
54236;BME280;40151;43.606;1.472;2023-03-11T03:56:13;98862.25;;;18.68;52.55
54236;BME280;40151;43.606;1.472;2023-03-11T03:58:39;98871.88;;;18.69;52.51
54236;BME280;40151;43.606;1.472;2023-03-11T04:01:05;98868.28;;;18.70;52.32
54236;BME280;40151;43.606;1.472;2023-03-11T04:03:31;98863.00;;;18.70;52.33
54236;BME280;40151;43.606;1.472;2023-03-11T04:08:32;98871.81;;;18.71;52.22
54236;BME280;40151;43.606;1.472;2023-03-11T04:10:58;98867.38;;;18.71;52.42
54236;BME280;40151;43.606;1.472;2023-03-11T04:13:23;98878.88;;;18.70;52.33
54236;BME280;40151;43.606;1.472;2023-03-11T04:15:49;98864.81;;;18.70;52.33
54236;BME280;40151;43.606;1.472;2023-03-11T04:18:14;98863.00;;;18.70;52.50
54236;BME280;40151;43.606;1.472;2023-03-11T04:20:39;98866.59;;;18.69;52.71
54236;BME280;40151;43.606;1.472;2023-03-11T04:23:05;98867.38;;;18.71;52.32
54236;BME280;40151;43.606;1.472;2023-03-11T04:25:31;98892.06;;;18.70;52.51
54236;BME280;40151;43.606;1.472;2023-03-11T04:27:58;98871.88;;;18.69;52.88
54236;BME280;40151;43.606;1.472;2023-03-11T04:30:24;98879.63;;;18.72;52.56
54236;BME280;40151;43.606;1.472;2023-03-11T04:32:49;98880.59;;;18.71;52.62
54236;BME280;40151;43.606;1.472;2023-03-11T04:35:15;98885.88;;;18.71;52.42
54236;BME280;40151;43.606;1.472;2023-03-11T04:37:40;98884.94;;;18.72;52.44
54236;BME280;40151;43.606;1.472;2023-03-11T04:40:06;98879.72;;;18.71;52.71
54236;BME280;40151;43.606;1.472;2023-03-11T04:42:32;98879.72;;;18.71;52.63
54236;BME280;40151;43.606;1.472;2023-03-11T04:44:57;98883.97;;;18.73;52.33
54236;BME280;40151;43.606;1.472;2023-03-11T04:47:23;98888.53;;;18.71;52.75
54236;BME280;40151;43.606;1.472;2023-03-11T04:49:48;98902.47;;;18.73;52.41
54236;BME280;40151;43.606;1.472;2023-03-11T04:52:13;98910.41;;;18.73;52.62
54236;BME280;40151;43.606;1.472;2023-03-11T04:54:39;98905.13;;;18.73;52.76
54236;BME280;40151;43.606;1.472;2023-03-11T04:57:04;98912.31;;;18.71;52.69
54236;BME280;40151;43.606;1.472;2023-03-11T04:59:30;98914.00;;;18.72;52.54
54236;BME280;40151;43.606;1.472;2023-03-11T05:01:55;98914.00;;;18.72;52.92
54236;BME280;40151;43.606;1.472;2023-03-11T05:04:21;98918.34;;;18.73;52.57
54236;BME280;40151;43.606;1.472;2023-03-11T05:06:46;98912.97;;;18.75;52.58
54236;BME280;40151;43.606;1.472;2023-03-11T05:09:15;98912.97;;;18.75;52.77
54236;BME280;40151;43.606;1.472;2023-03-11T05:11:40;98906.81;;;18.74;52.84
54236;BME280;40151;43.606;1.472;2023-03-11T05:14:06;98905.13;;;18.73;52.53
54236;BME280;40151;43.606;1.472;2023-03-11T05:16:31;98922.69;;;18.74;52.49
54236;BME280;40151;43.606;1.472;2023-03-11T05:18:57;98927.97;;;18.74;52.56
54236;BME280;40151;43.606;1.472;2023-03-11T05:21:22;98930.59;;;18.74;52.90
54236;BME280;40151;43.606;1.472;2023-03-11T05:23:47;98936.84;;;18.73;53.00
54236;BME280;40151;43.606;1.472;2023-03-11T05:26:13;98943.72;;;18.76;52.60
54236;BME280;40151;43.606;1.472;2023-03-11T05:28:39;98940.22;;;18.75;52.65
54236;BME280;40151;43.606;1.472;2023-03-11T05:31:10;98949.09;;;18.74;52.92
54236;BME280;40151;43.606;1.472;2023-03-11T05:33:36;98944.69;;;18.75;52.91
54236;BME280;40151;43.606;1.472;2023-03-11T05:36:06;98947.31;;;18.75;52.43
54236;BME280;40151;43.606;1.472;2023-03-11T05:38:33;98932.28;;;18.75;52.77
54236;BME280;40151;43.606;1.472;2023-03-11T05:40:59;98929.66;;;18.75;52.80
54236;BME280;40151;43.606;1.472;2023-03-11T05:43:24;98939.41;;;18.75;52.75
54236;BME280;40151;43.606;1.472;2023-03-11T05:45:49;98940.22;;;18.75;52.61
54236;BME280;40151;43.606;1.472;2023-03-11T05:48:15;98924.38;;;18.75;52.52
54236;BME280;40151;43.606;1.472;2023-03-11T05:50:40;98929.56;;;18.77;52.45
54236;BME280;40151;43.606;1.472;2023-03-11T05:53:05;98940.22;;;18.75;52.54
54236;BME280;40151;43.606;1.472;2023-03-11T05:55:31;98947.25;;;18.76;52.56
54236;BME280;40151;43.606;1.472;2023-03-11T05:57:56;98936.66;;;18.76;52.46
54236;BME280;40151;43.606;1.472;2023-03-11T06:00:22;98940.22;;;18.75;52.70
54236;BME280;40151;43.606;1.472;2023-03-11T06:02:47;98958.66;;;18.77;52.57
54236;BME280;40151;43.606;1.472;2023-03-11T06:05:13;98959.50;;;18.77;52.61
54236;BME280;40151;43.606;1.472;2023-03-11T06:07:38;98955.16;;;18.76;52.52
54236;BME280;40151;43.606;1.472;2023-03-11T06:10:04;98956.94;;;18.76;52.60
54236;BME280;40151;43.606;1.472;2023-03-11T06:12:33;98952.53;;;18.76;52.77
54236;BME280;40151;43.606;1.472;2023-03-11T06:14:58;98946.38;;;18.76;52.53
54236;BME280;40151;43.606;1.472;2023-03-11T06:17:24;98959.50;;;18.77;52.66
54236;BME280;40151;43.606;1.472;2023-03-11T06:19:49;98965.63;;;18.78;52.68
54236;BME280;40151;43.606;1.472;2023-03-11T06:22:15;98950.81;;;18.75;52.88
54236;BME280;40151;43.606;1.472;2023-03-11T06:24:40;98956.09;;;18.75;52.74
54236;BME280;40151;43.606;1.472;2023-03-11T06:27:05;98953.34;;;18.77;52.95
54236;BME280;40151;43.606;1.472;2023-03-11T06:29:33;98953.34;;;18.77;52.85
54236;BME280;40151;43.606;1.472;2023-03-11T06:31:58;98952.53;;;18.76;52.74
54236;BME280;40151;43.606;1.472;2023-03-11T06:34:24;98953.34;;;18.77;52.46
54236;BME280;40151;43.606;1.472;2023-03-11T06:36:49;98959.50;;;18.77;52.60
54236;BME280;40151;43.606;1.472;2023-03-11T06:39:15;98964.78;;;18.77;52.59
54236;BME280;40151;43.606;1.472;2023-03-11T06:41:41;98970.09;;;18.77;52.55
54236;BME280;40151;43.606;1.472;2023-03-11T06:44:08;98978.84;;;18.78;52.68
54236;BME280;40151;43.606;1.472;2023-03-11T06:46:34;98969.22;;;18.77;52.90
54236;BME280;40151;43.606;1.472;2023-03-11T06:49:00;98976.31;;;18.76;52.69
54236;BME280;40151;43.606;1.472;2023-03-11T06:51:25;98975.38;;;18.77;52.67
54236;BME280;40151;43.606;1.472;2023-03-11T06:53:53;98971.84;;;18.77;52.87
54236;BME280;40151;43.606;1.472;2023-03-11T06:56:20;98977.06;;;18.78;52.38
54236;BME280;40151;43.606;1.472;2023-03-11T06:58:46;98980.66;;;18.77;52.84
54236;BME280;40151;43.606;1.472;2023-03-11T07:03:38;98974.34;;;18.80;52.78
54236;BME280;40151;43.606;1.472;2023-03-11T07:06:04;98983.19;;;18.79;52.91
54236;BME280;40151;43.606;1.472;2023-03-11T07:08:29;98992.91;;;18.78;52.85
54236;BME280;40151;43.606;1.472;2023-03-11T07:11:08;98992.91;;;18.78;52.81
54236;BME280;40151;43.606;1.472;2023-03-11T07:13:34;98999.16;;;18.77;52.71
54236;BME280;40151;43.606;1.472;2023-03-11T07:16:07;99009.63;;;18.79;52.71
54236;BME280;40151;43.606;1.472;2023-03-11T07:18:33;99014.00;;;18.80;52.91
54236;BME280;40151;43.606;1.472;2023-03-11T07:21:01;99008.78;;;18.78;52.81
54236;BME280;40151;43.606;1.472;2023-03-11T07:23:26;99014.91;;;18.79;52.64
54236;BME280;40151;43.606;1.472;2023-03-11T07:25:52;99010.47;;;18.79;52.84
54236;BME280;40151;43.606;1.472;2023-03-11T07:28:20;99006.06;;;18.80;52.65
54236;BME280;40151;43.606;1.472;2023-03-11T07:30:45;99011.34;;;18.80;52.71
54236;BME280;40151;43.606;1.472;2023-03-11T07:33:12;99007.84;;;18.79;52.72
54236;BME280;40151;43.606;1.472;2023-03-11T07:35:38;99006.06;;;18.80;52.67
54236;BME280;40151;43.606;1.472;2023-03-11T07:38:03;99012.19;;;18.81;52.91
54236;BME280;40151;43.606;1.472;2023-03-11T07:40:29;99018.41;;;18.79;52.56
54236;BME280;40151;43.606;1.472;2023-03-11T07:42:54;99008.69;;;18.80;52.51
54236;BME280;40151;43.606;1.472;2023-03-11T07:45:19;99035.97;;;18.81;52.93
54236;BME280;40151;43.606;1.472;2023-03-11T07:47:45;99014.06;;;18.78;52.73
54236;BME280;40151;43.606;1.472;2023-03-11T07:50:10;99017.47;;;18.81;52.86
54236;BME280;40151;43.606;1.472;2023-03-11T07:52:36;99013.13;;;18.79;52.67
54236;BME280;40151;43.606;1.472;2023-03-11T07:55:02;99027.09;;;18.82;52.64
54236;BME280;40151;43.606;1.472;2023-03-11T07:57:28;99035.03;;;18.82;52.82
54236;BME280;40151;43.606;1.472;2023-03-11T07:59:53;99042.94;;;18.82;52.70
54236;BME280;40151;43.606;1.472;2023-03-11T08:02:19;99046.47;;;18.82;52.74
54236;BME280;40151;43.606;1.472;2023-03-11T08:04:44;99051.81;;;18.81;52.83
54236;BME280;40151;43.606;1.472;2023-03-11T08:07:09;99051.00;;;18.80;52.86
54236;BME280;40151;43.606;1.472;2023-03-11T08:09:35;99061.44;;;18.82;52.82
54236;BME280;40151;43.606;1.472;2023-03-11T08:12:00;99059.75;;;18.81;52.67
54236;BME280;40151;43.606;1.472;2023-03-11T08:14:26;99065.03;;;18.81;53.20
54236;BME280;40151;43.606;1.472;2023-03-11T08:16:51;99064.09;;;18.82;52.88
54236;BME280;40151;43.606;1.472;2023-03-11T08:19:17;99074.66;;;18.82;52.79
54236;BME280;40151;43.606;1.472;2023-03-11T08:21:42;99085.25;;;18.82;52.65
54236;BME280;40151;43.606;1.472;2023-03-11T08:24:10;99088.75;;;18.82;52.58
54236;BME280;40151;43.606;1.472;2023-03-11T08:26:37;99098.47;;;18.82;52.69
54236;BME280;40151;43.606;1.472;2023-03-11T08:29:03;99100.19;;;18.83;52.81
54236;BME280;40151;43.606;1.472;2023-03-11T08:31:30;99097.53;;;18.83;52.79
54236;BME280;40151;43.606;1.472;2023-03-11T08:34:05;99099.31;;;18.82;52.91
54236;BME280;40151;43.606;1.472;2023-03-11T08:36:31;99087.81;;;18.83;52.94
54236;BME280;40151;43.606;1.472;2023-03-11T08:38:57;99061.44;;;18.82;52.95
54236;BME280;40151;43.606;1.472;2023-03-11T08:41:24;99079.03;;;18.83;52.57
54236;BME280;40151;43.606;1.472;2023-03-11T08:43:49;99087.72;;;18.85;52.68
54236;BME280;40151;43.606;1.472;2023-03-11T08:48:44;99064.88;;;18.84;52.68
54236;BME280;40151;43.606;1.472;2023-03-11T08:51:11;99072.81;;;18.84;53.13
54236;BME280;40151;43.606;1.472;2023-03-11T08:53:36;99075.44;;;18.84;53.09
54236;BME280;40151;43.606;1.472;2023-03-11T08:56:02;99078.09;;;18.84;52.99
54236;BME280;40151;43.606;1.472;2023-03-11T08:58:27;99075.44;;;18.84;52.69
54236;BME280;40151;43.606;1.472;2023-03-11T09:00:54;99086.03;;;18.84;52.81
54236;BME280;40151;43.606;1.472;2023-03-11T09:03:19;99086.84;;;18.84;52.67
54236;BME280;40151;43.606;1.472;2023-03-11T09:05:44;99077.16;;;18.85;52.75
54236;BME280;40151;43.606;1.472;2023-03-11T09:08:10;99084.13;;;18.86;52.65
54236;BME280;40151;43.606;1.472;2023-03-11T09:10:35;99086.03;;;18.84;52.58
54236;BME280;40151;43.606;1.472;2023-03-11T09:13:01;99087.72;;;18.85;52.88
54236;BME280;40151;43.606;1.472;2023-03-11T09:15:26;99083.31;;;18.85;52.75
54236;BME280;40151;43.606;1.472;2023-03-11T09:17:52;99081.50;;;18.86;52.90
54236;BME280;40151;43.606;1.472;2023-03-11T09:20:18;99084.13;;;18.86;52.88
54236;BME280;40151;43.606;1.472;2023-03-11T09:22:44;99086.03;;;18.84;52.70
54236;BME280;40151;43.606;1.472;2023-03-11T09:25:11;99088.59;;;18.85;52.96
54236;BME280;40151;43.606;1.472;2023-03-11T09:27:36;99100.00;;;18.86;52.97
54236;BME280;40151;43.606;1.472;2023-03-11T09:30:02;99106.16;;;18.86;52.72
54236;BME280;40151;43.606;1.472;2023-03-11T09:32:27;99102.63;;;18.86;52.59
54236;BME280;40151;43.606;1.472;2023-03-11T09:34:53;99116.72;;;18.86;52.92
54236;BME280;40151;43.606;1.472;2023-03-11T09:37:18;99119.25;;;18.88;52.57
54236;BME280;40151;43.606;1.472;2023-03-11T09:39:44;99110.56;;;18.86;52.84
54236;BME280;40151;43.606;1.472;2023-03-11T09:45:14;99099.91;;;18.87;52.88
54236;BME280;40151;43.606;1.472;2023-03-11T09:50:31;99107.94;;;18.86;52.94
54236;BME280;40151;43.606;1.472;2023-03-11T09:57:58;99098.28;;;18.85;52.79
54236;BME280;40151;43.606;1.472;2023-03-11T10:00:24;99102.63;;;18.86;52.81
54236;BME280;40151;43.606;1.472;2023-03-11T10:02:50;99091.31;;;18.84;53.24
54236;BME280;40151;43.606;1.472;2023-03-11T10:05:35;99091.13;;;18.87;53.09
54236;BME280;40151;43.606;1.472;2023-03-11T10:08:24;99105.19;;;18.87;52.65
54236;BME280;40151;43.606;1.472;2023-03-11T10:13:53;99098.09;;;18.88;52.81
54236;BME280;40151;43.606;1.472;2023-03-11T10:19:17;99095.56;;;18.86;53.14
54236;BME280;40151;43.606;1.472;2023-03-11T10:21:55;99094.72;;;18.86;52.72
54236;BME280;40151;43.606;1.472;2023-03-11T10:24:41;99093.75;;;18.87;52.86
54236;BME280;40151;43.606;1.472;2023-03-11T10:27:20;99097.28;;;18.87;53.12
54236;BME280;40151;43.606;1.472;2023-03-11T10:29:54;99092.81;;;18.88;52.94
54236;BME280;40151;43.606;1.472;2023-03-11T10:32:43;99096.31;;;18.88;52.74
54236;BME280;40151;43.606;1.472;2023-03-11T10:35:19;99090.09;;;18.89;52.90
54236;BME280;40151;43.606;1.472;2023-03-11T10:37:53;99083.97;;;18.89;52.98
54236;BME280;40151;43.606;1.472;2023-03-11T10:40:31;99100.75;;;18.88;53.10
54236;BME280;40151;43.606;1.472;2023-03-11T10:43:10;99100.75;;;18.88;52.87
54236;BME280;40151;43.606;1.472;2023-03-11T10:45:40;99092.81;;;18.88;52.92
54236;BME280;40151;43.606;1.472;2023-03-11T10:48:15;99110.41;;;18.89;52.90
54236;BME280;40151;43.606;1.472;2023-03-11T10:53:25;99098.09;;;18.88;52.98
54236;BME280;40151;43.606;1.472;2023-03-11T10:55:53;99088.41;;;18.88;53.21
54236;BME280;40151;43.606;1.472;2023-03-11T10:58:24;99091.03;;;18.88;53.26
54236;BME280;40151;43.606;1.472;2023-03-11T11:01:13;99092.66;;;18.91;53.14
54236;BME280;40151;43.606;1.472;2023-03-11T11:03:48;99105.88;;;18.91;53.00
54236;BME280;40151;43.606;1.472;2023-03-11T11:06:33;99101.53;;;18.90;52.90
54236;BME280;40151;43.606;1.472;2023-03-11T11:09:18;99096.25;;;18.90;53.00
54236;BME280;40151;43.606;1.472;2023-03-11T11:14:24;99110.28;;;18.90;53.28
54236;BME280;40151;43.606;1.472;2023-03-11T11:16:50;99102.38;;;18.90;53.25
54236;BME280;40151;43.606;1.472;2023-03-11T11:19:17;99118.22;;;18.90;53.10
54236;BME280;40151;43.606;1.472;2023-03-11T11:21:49;99103.31;;;18.89;53.33
54236;BME280;40151;43.606;1.472;2023-03-11T11:24:27;99108.50;;;18.91;53.17
54236;BME280;40151;43.606;1.472;2023-03-11T11:27:19;99115.50;;;18.92;53.19
54236;BME280;40151;43.606;1.472;2023-03-11T11:29:47;99120.03;;;18.90;53.20
54236;BME280;40151;43.606;1.472;2023-03-11T11:32:26;99112.09;;;18.90;53.28
54236;BME280;40151;43.606;1.472;2023-03-11T11:37:24;99119.97;;;18.91;53.19
54236;BME280;40151;43.606;1.472;2023-03-11T11:39:58;99110.22;;;18.92;53.19
54236;BME280;40151;43.606;1.472;2023-03-11T11:42:27;99131.44;;;18.90;53.15
54236;BME280;40151;43.606;1.472;2023-03-11T11:45:01;99126.06;;;18.92;52.99
54236;BME280;40151;43.606;1.472;2023-03-11T11:47:34;99142.88;;;18.91;53.17
54236;BME280;40151;43.606;1.472;2023-03-11T11:50:04;99132.31;;;18.91;53.46
54236;BME280;40151;43.606;1.472;2023-03-11T11:52:35;99141.94;;;18.92;53.41
54236;BME280;40151;43.606;1.472;2023-03-11T11:55:17;99151.69;;;18.91;53.13
54236;BME280;40151;43.606;1.472;2023-03-11T11:57:45;99145.44;;;18.92;53.58
54236;BME280;40151;43.606;1.472;2023-03-11T12:00:19;99123.44;;;18.92;53.40
54236;BME280;40151;43.606;1.472;2023-03-11T12:05:26;99160.38;;;18.94;53.17
54236;BME280;40151;43.606;1.472;2023-03-11T12:10:46;99154.31;;;18.91;53.13
54236;BME280;40151;43.606;1.472;2023-03-11T12:13:23;99148.94;;;18.93;53.43
54236;BME280;40151;43.606;1.472;2023-03-11T12:16:04;99149.78;;;18.94;53.46
54236;BME280;40151;43.606;1.472;2023-03-11T12:19:02;99140.25;;;18.91;53.41
54236;BME280;40151;43.606;1.472;2023-03-11T12:27:04;99146.28;;;18.93;53.39
54236;BME280;40151;43.606;1.472;2023-03-11T12:29:39;99154.22;;;18.93;53.17
54236;BME280;40151;43.606;1.472;2023-03-11T12:32:13;99159.50;;;18.93;53.49
54236;BME280;40151;43.606;1.472;2023-03-11T12:34:44;99157.66;;;18.95;53.38
54236;BME280;40151;43.606;1.472;2023-03-11T12:37:13;99148.09;;;18.92;53.50
54236;BME280;40151;43.606;1.472;2023-03-11T12:39:41;99153.28;;;18.94;53.69
54236;BME280;40151;43.606;1.472;2023-03-11T12:44:35;99137.53;;;18.92;53.57
54236;BME280;40151;43.606;1.472;2023-03-11T12:49:44;99128.63;;;18.94;53.38
54236;BME280;40151;43.606;1.472;2023-03-11T12:54:43;99143.63;;;18.93;53.52
54236;BME280;40151;43.606;1.472;2023-03-11T13:08:25;99121.56;;;18.94;53.65
54236;BME280;40151;43.606;1.472;2023-03-11T13:10:53;99120.63;;;18.95;53.59
54236;BME280;40151;43.606;1.472;2023-03-11T13:16:34;99116.28;;;18.94;53.78
54236;BME280;40151;43.606;1.472;2023-03-11T13:18:48;99114.47;;;18.95;53.49
54236;BME280;40151;43.606;1.472;2023-03-11T13:21:36;99112.69;;;18.95;53.65
54236;BME280;40151;43.606;1.472;2023-03-11T13:40:43;99099.47;;;18.95;53.49
54236;BME280;40151;43.606;1.472;2023-03-11T13:43:17;99103.06;;;18.94;53.77
54236;BME280;40151;43.606;1.472;2023-03-11T13:45:52;99104.75;;;18.95;53.56
54236;BME280;40151;43.606;1.472;2023-03-11T13:48:27;99104.75;;;18.95;53.65
54236;BME280;40151;43.606;1.472;2023-03-11T13:51:03;99104.66;;;18.97;53.71
54236;BME280;40151;43.606;1.472;2023-03-11T13:53:39;99095.03;;;18.96;53.63
54236;BME280;40151;43.606;1.472;2023-03-11T13:56:21;99104.75;;;18.95;53.55
54236;BME280;40151;43.606;1.472;2023-03-11T13:58:47;99101.16;;;18.96;53.78
54236;BME280;40151;43.606;1.472;2023-03-11T14:01:16;99106.47;;;18.96;53.81
54236;BME280;40151;43.606;1.472;2023-03-11T14:03:43;99104.75;;;18.95;53.70
54236;BME280;40151;43.606;1.472;2023-03-11T14:06:17;99102.94;;;18.96;53.85
54236;BME280;40151;43.606;1.472;2023-03-11T14:08:52;99106.47;;;18.96;53.77
54236;BME280;40151;43.606;1.472;2023-03-11T14:11:18;99103.91;;;18.95;53.92
54236;BME280;40151;43.606;1.472;2023-03-11T14:13:48;99109.94;;;18.97;53.51
54236;BME280;40151;43.606;1.472;2023-03-11T14:16:29;99115.34;;;18.95;53.50
54236;BME280;40151;43.606;1.472;2023-03-11T14:19:03;99122.31;;;18.96;53.67
54236;BME280;40151;43.606;1.472;2023-03-11T14:21:29;99113.63;;;18.94;53.91
54236;BME280;40151;43.606;1.472;2023-03-11T14:23:56;99111.00;;;18.94;53.59
54236;BME280;40151;43.606;1.472;2023-03-11T14:26:25;99109.94;;;18.97;53.79
54236;BME280;40151;43.606;1.472;2023-03-11T14:28:56;99117.97;;;18.95;53.70